createdAt,value
2022-09-28T00:00:17.142Z,99056.91
2022-09-28T00:03:18.850Z,99046.41
2022-09-28T00:06:23.725Z,99047.28
2022-09-28T00:09:26.148Z,99040.31
2022-09-28T00:12:28.635Z,99039.50
2022-09-28T00:15:30.536Z,99041.16
2022-09-28T00:18:33.456Z,99036.75
2022-09-28T00:21:37.839Z,99038.50
2022-09-28T00:24:39.516Z,99042.78
2022-09-28T00:27:41.408Z,99045.53
2022-09-28T00:30:43.019Z,99037.66
2022-09-28T00:33:45.072Z,99032.44
2022-09-28T00:36:48.136Z,99036.88
2022-09-28T00:39:50.458Z,99036.81
2022-09-28T00:42:52.112Z,99038.56
2022-09-28T00:46:00.684Z,99023.84
2022-09-28T00:49:08.891Z,99031.53
2022-09-28T00:52:25.289Z,99029.78
2022-09-28T00:55:46.564Z,99031.50
2022-09-28T00:58:53.409Z,99035.81
2022-09-28T01:01:56.005Z,99031.38
2022-09-28T01:04:59.489Z,99029.69
2022-09-28T01:08:02.853Z,99024.44
2022-09-28T01:11:05.225Z,99030.56
2022-09-28T01:14:11.921Z,99030.63
2022-09-28T01:17:22.907Z,99033.19
2022-09-28T01:20:43.869Z,99039.28
2022-09-28T01:23:54.785Z,99039.13
2022-09-28T01:27:13.821Z,99040.00
2022-09-28T01:30:18.234Z,99052.19
2022-09-28T01:33:26.320Z,99053.91
2022-09-28T01:36:36.812Z,99047.78
2022-09-28T01:39:42.738Z,99049.59
2022-09-28T01:42:51.692Z,99063.41
2022-09-28T01:46:02.095Z,99073.75
2022-09-28T01:49:10.303Z,99077.25
2022-09-28T01:52:35.619Z,99084.25
2022-09-28T01:55:43.752Z,99085.94
2022-09-28T01:59:06.591Z,99091.16
2022-09-28T02:02:24.093Z,99085.94
2022-09-28T02:05:39.392Z,99097.25
2022-09-28T02:08:49.556Z,99095.63
2022-09-28T02:11:59.046Z,99098.22
2022-09-28T02:15:19.292Z,99105.06
2022-09-28T02:18:21.092Z,99105.78
2022-09-28T02:21:32.807Z,99108.34
2022-09-28T02:24:43.158Z,99116.06
2022-09-28T02:28:06.769Z,99106.56
2022-09-28T02:31:08.480Z,99101.22
2022-09-28T02:34:16.443Z,99104.63
2022-09-28T02:37:18.241Z,99104.63
2022-09-28T02:40:23.616Z,99107.22
2022-09-28T02:43:49.512Z,99107.38
2022-09-28T02:47:07.044Z,99111.53
2022-09-28T02:50:11.575Z,99116.69
2022-09-28T02:53:25.336Z,99119.16
2022-09-28T02:56:54.573Z,99113.12
2022-09-28T03:00:10.462Z,99114.75
2022-09-28T03:03:21.510Z,99126.84
2022-09-28T03:06:31.371Z,99127.75
2022-09-28T03:09:51.344Z,99135.41
2022-09-28T03:12:54.749Z,99132.78
2022-09-28T03:16:11.593Z,99126.75
2022-09-28T03:19:14.178Z,99129.25
2022-09-28T03:22:16.094Z,99131.91
2022-09-28T03:25:18.047Z,99139.66
2022-09-28T03:28:21.412Z,99138.78
2022-09-28T03:31:23.929Z,99144.09
2022-09-28T03:34:25.630Z,99139.03
2022-09-28T03:37:28.957Z,99143.56
2022-09-28T03:40:30.705Z,99141.19
2022-09-28T03:43:36.677Z,99138.69
2022-09-28T03:46:38.320Z,99133.50
2022-09-28T03:49:41.655Z,99136.94
2022-09-28T03:52:47.382Z,99131.81
2022-09-28T03:55:50.635Z,99135.38
2022-09-28T03:58:53.233Z,99145.72
2022-09-28T04:01:55.387Z,99150.81
2022-09-28T04:04:57.464Z,99154.09
2022-09-28T04:07:59.383Z,99159.41
2022-09-28T04:11:01.900Z,99167.00
2022-09-28T04:14:04.590Z,99160.81
2022-09-28T04:17:07.456Z,99166.97
2022-09-28T04:20:09.322Z,99162.69
2022-09-28T04:23:11.289Z,99163.63
2022-09-28T04:26:20.958Z,99153.28
2022-09-28T04:29:23.011Z,99148.94
2022-09-28T04:32:24.917Z,99146.41
2022-09-28T04:35:26.750Z,99138.72
2022-09-28T04:38:48.731Z,99144.81
2022-09-28T04:41:50.272Z,99141.34
2022-09-28T04:44:54.090Z,99143.00
2022-09-28T04:47:55.996Z,99146.44
2022-09-28T04:51:00.499Z,99152.72
2022-09-28T04:54:03.224Z,99143.59
2022-09-28T04:57:06.277Z,99145.34
2022-09-28T05:00:09.740Z,99149.72
2022-09-28T05:03:11.723Z,99159.97
2022-09-28T05:06:15.595Z,99161.56
2022-09-28T05:09:17.356Z,99164.00
2022-09-28T05:12:19.479Z,99161.34
2022-09-28T05:15:21.157Z,99167.31
2022-09-28T05:18:23.170Z,99168.28
2022-09-28T05:21:26.436Z,99171.06
2022-09-28T05:24:28.023Z,99169.09
2022-09-28T05:27:29.629Z,99169.28
2022-09-28T05:30:35.736Z,99166.56
2022-09-28T05:33:37.691Z,99171.75
2022-09-28T05:36:40.774Z,99181.34
2022-09-28T05:39:42.460Z,99180.03
2022-09-28T05:42:44.510Z,99183.47
2022-09-28T05:45:46.436Z,99190.78
2022-09-28T05:48:51.236Z,99184.50
2022-09-28T05:51:53.078Z,99194.94
2022-09-28T05:54:55.004Z,99200.03
2022-09-28T05:58:01.013Z,99208.16
2022-09-28T06:01:03.140Z,99209.97
2022-09-28T06:04:05.006Z,99204.06
2022-09-28T06:07:06.709Z,99204.25
2022-09-28T06:10:08.841Z,99199.97
2022-09-28T06:13:12.156Z,99200.09
2022-09-28T06:16:18.807Z,99198.72
2022-09-28T06:19:20.723Z,99201.50
2022-09-28T06:22:22.388Z,99199.91
2022-09-28T06:25:24.801Z,99199.03
2022-09-28T06:28:32.602Z,99198.22
2022-09-28T06:31:34.696Z,99192.13
2022-09-28T06:34:36.482Z,99195.84
2022-09-28T06:37:38.504Z,99200.44
2022-09-28T06:40:40.250Z,99198.75
2022-09-28T06:43:49.008Z,99202.22
2022-09-28T06:46:52.241Z,99186.78
2022-09-28T06:49:55.598Z,99187.66
2022-09-28T06:52:59.390Z,99204.88
2022-09-28T06:56:02.539Z,99204.81
2022-09-28T06:59:06.216Z,99204.91
2022-09-28T07:02:16.448Z,99188.53
2022-09-28T07:05:19.204Z,99198.13
2022-09-28T07:08:26.547Z,99189.50
2022-09-28T07:11:29.480Z,99193.87
2022-09-28T07:14:46.995Z,99191.28
2022-09-28T07:18:00.612Z,99203.44
2022-09-28T07:21:04.571Z,99207.75
2022-09-28T07:24:06.937Z,99205.78
2022-09-28T07:27:09.110Z,99223.53
2022-09-28T07:30:11.547Z,99215.69
2022-09-28T07:33:16.150Z,99224.47
2022-09-28T07:36:18.618Z,99225.34
2022-09-28T07:39:20.274Z,99228.81
2022-09-28T07:42:22.133Z,99233.19
2022-09-28T07:45:24.576Z,99240.59
2022-09-28T07:48:26.369Z,99237.06
2022-09-28T07:51:28.053Z,99238.50
2022-09-28T07:54:31.290Z,99235.72
2022-09-28T07:57:36.391Z,99240.78
2022-09-28T08:00:38.558Z,99244.41
2022-09-28T08:03:40.236Z,99235.81
2022-09-28T08:06:42.880Z,99240.69
2022-09-28T08:09:46.296Z,99238.59
2022-09-28T08:12:47.995Z,99238.06
2022-09-28T08:15:52.130Z,99238.00
2022-09-28T08:18:54.344Z,99232.41
2022-09-28T08:21:57.153Z,99229.53
2022-09-28T08:24:59.082Z,99224.13
2022-09-28T08:28:02.003Z,99230.03
2022-09-28T08:31:04.106Z,99226.22
2022-09-28T08:34:05.822Z,99225.72
2022-09-28T08:37:12.820Z,99221.44
2022-09-28T08:40:20.387Z,99218.38
2022-09-28T08:43:59.851Z,99211.00
2022-09-28T08:47:07.960Z,99208.44
2022-09-28T08:50:17.831Z,99209.88
2022-09-28T08:53:35.534Z,99200.00
2022-09-28T08:56:47.448Z,99206.50
2022-09-28T08:59:49.180Z,99208.09
2022-09-28T09:02:51.265Z,99210.91
2022-09-28T09:06:04.962Z,99222.72
2022-09-28T09:09:23.405Z,99214.56
2022-09-28T09:12:43.701Z,99207.19
2022-09-28T09:15:48.838Z,99217.47
2022-09-28T09:19:17.989Z,99211.25
2022-09-28T09:22:40.800Z,99211.56
2022-09-28T09:25:50.801Z,99217.53
2022-09-28T09:29:07.562Z,99213.03
2022-09-28T09:32:13.248Z,99214.59
2022-09-28T09:35:28.486Z,99211.62
2022-09-28T09:38:37.548Z,99218.13
2022-09-28T09:41:52.467Z,99226.72
2022-09-28T09:45:13.914Z,99217.03
2022-09-28T09:48:31.371Z,99221.38
2022-09-28T09:51:50.811Z,99225.91
2022-09-28T09:54:58.334Z,99220.22
2022-09-28T09:58:17.961Z,99222.16
2022-09-28T10:01:27.124Z,99225.78
2022-09-28T10:04:44.563Z,99236.13
2022-09-28T10:08:00.345Z,99230.56
2022-09-28T10:11:11.101Z,99227.72
2022-09-28T10:14:17.451Z,99226.25
2022-09-28T10:17:26.978Z,99217.84
2022-09-28T10:20:34.676Z,99218.97
2022-09-28T10:23:37.941Z,99210.13
2022-09-28T10:26:43.297Z,99211.62
2022-09-28T10:29:58.181Z,99209.59
2022-09-28T10:33:01.437Z,99220.34
2022-09-28T10:36:07.165Z,99223.87
2022-09-28T10:39:26.655Z,99216.69
2022-09-28T10:42:33.714Z,99227.22
2022-09-28T10:45:36.968Z,99225.13
2022-09-28T10:48:48.543Z,99220.00
2022-09-28T10:51:56.400Z,99219.75
2022-09-28T10:54:58.694Z,99220.03
2022-09-28T10:58:01.164Z,99209.34
2022-09-28T11:01:10.650Z,99202.19
2022-09-28T11:04:21.643Z,99199.91
2022-09-28T11:07:44.659Z,99198.13
2022-09-28T11:10:46.326Z,99202.13
2022-09-28T11:13:51.414Z,99196.41
2022-09-28T11:17:18.366Z,99210.53
2022-09-28T11:20:28.325Z,99202.59
2022-09-28T11:23:31.236Z,99203.06
2022-09-28T11:26:41.133Z,99208.75
2022-09-28T11:30:00.836Z,99203.88
2022-09-28T11:33:07.883Z,99205.59
2022-09-28T11:36:16.778Z,99204.50
2022-09-28T11:39:29.124Z,99201.25
2022-09-28T11:42:49.505Z,99204.69
2022-09-28T11:45:59.602Z,99207.87
2022-09-28T11:49:15.366Z,99203.91
2022-09-28T11:52:28.001Z,99202.66
2022-09-28T11:55:46.173Z,99201.41
2022-09-28T11:58:55.709Z,99202.09
2022-09-28T12:02:14.974Z,99190.84
2022-09-28T12:05:28.401Z,99192.19
2022-09-28T12:08:35.109Z,99189.28
2022-09-28T12:11:43.977Z,99187.28
2022-09-28T12:14:47.592Z,99179.22
2022-09-28T12:18:05.171Z,99183.84
2022-09-28T12:21:30.567Z,99177.44
2022-09-28T12:24:49.056Z,99178.00
2022-09-28T12:27:58.218Z,99181.41
2022-09-28T12:31:09.871Z,99169.09
2022-09-28T12:34:12.385Z,99175.59
2022-09-28T12:37:54.551Z,99169.87
2022-09-28T12:40:58.586Z,99167.31
2022-09-28T12:44:18.809Z,99170.41
2022-09-28T12:47:47.946Z,99155.84
2022-09-28T12:50:57.921Z,99146.44
2022-09-28T12:54:39.756Z,99139.87
2022-09-28T12:58:17.908Z,99140.84
2022-09-28T13:01:48.830Z,99130.75
2022-09-28T13:04:59.288Z,99132.97
2022-09-28T13:08:19.139Z,99131.38
2022-09-28T13:11:36.827Z,99124.50
2022-09-28T13:14:58.307Z,99119.06
2022-09-28T13:18:19.985Z,99123.41
2022-09-28T13:21:43.818Z,99117.34
2022-09-28T13:24:47.316Z,99105.47
2022-09-28T13:27:59.252Z,99107.13
2022-09-28T13:31:02.496Z,99112.00
2022-09-28T13:34:05.973Z,99114.28
2022-09-28T13:37:21.581Z,99114.94
2022-09-28T13:41:02.990Z,99106.16
2022-09-28T13:44:21.016Z,99089.97
2022-09-28T13:47:57.766Z,99094.56
2022-09-28T13:51:28.159Z,99100.31
2022-09-28T13:55:21.668Z,99103.22
2022-09-28T13:58:42.365Z,99093.63
2022-09-28T14:02:09.672Z,99086.19
2022-09-28T14:05:23.323Z,99092.28
2022-09-28T14:08:33.629Z,99078.22
2022-09-28T14:11:35.323Z,99081.16
2022-09-28T14:14:49.220Z,99087.25
2022-09-28T14:17:54.429Z,99098.44
2022-09-28T14:21:17.525Z,99090.66
2022-09-28T14:24:32.000Z,99088.38
2022-09-28T14:28:08.085Z,99088.78
2022-09-28T14:31:17.578Z,99095.03
2022-09-28T14:34:47.255Z,99100.91
2022-09-28T14:38:10.481Z,99110.38
2022-09-28T14:41:18.119Z,99101.03
2022-09-28T14:44:20.006Z,99106.44
2022-09-28T14:47:40.834Z,99097.03
2022-09-28T14:50:42.740Z,99102.00
2022-09-28T14:53:45.568Z,99103.47
2022-09-28T14:56:53.627Z,99096.03
2022-09-28T14:59:59.518Z,99097.75
2022-09-28T15:03:07.851Z,99089.31
2022-09-28T15:06:16.940Z,99087.81
2022-09-28T15:09:33.980Z,99081.84
2022-09-28T15:12:36.136Z,99078.34
2022-09-28T15:15:41.441Z,99073.22
2022-09-28T15:19:09.689Z,99092.59
2022-09-28T15:22:15.636Z,99086.56
2022-09-28T15:25:20.874Z,99093.13
2022-09-28T15:28:24.481Z,99078.94
2022-09-28T15:31:28.441Z,99091.59
2022-09-28T15:34:54.675Z,99095.22
2022-09-28T15:37:56.646Z,99098.59
2022-09-28T15:41:02.789Z,99092.47
2022-09-28T15:44:08.440Z,99102.84
2022-09-28T15:47:27.180Z,99098.50
2022-09-28T15:50:30.099Z,99105.59
2022-09-28T15:53:33.081Z,99098.59
2022-09-28T15:56:54.887Z,99090.94
2022-09-28T15:59:57.069Z,99075.31
2022-09-28T16:03:08.295Z,99071.09
2022-09-28T16:06:11.544Z,99077.34
2022-09-28T16:09:40.277Z,99069.38
2022-09-28T16:12:56.655Z,99079.06
2022-09-28T16:16:01.423Z,99079.94
2022-09-28T16:19:03.651Z,99088.03
2022-09-28T16:22:16.353Z,99089.00
2022-09-28T16:25:24.704Z,99089.19
2022-09-28T16:28:38.592Z,99084.09
2022-09-28T16:32:20.339Z,99089.50
2022-09-28T16:35:29.225Z,99088.53
2022-09-28T16:38:31.609Z,99094.66
2022-09-28T16:41:33.408Z,99093.97
2022-09-28T16:44:35.892Z,99089.59
2022-09-28T16:47:39.733Z,99092.28
2022-09-28T16:50:41.522Z,99093.22
2022-09-28T16:54:02.867Z,99095.94
2022-09-28T16:57:06.450Z,99093.28
2022-09-28T17:00:17.139Z,99093.50
2022-09-28T17:03:18.965Z,99096.94
2022-09-28T17:06:24.737Z,99100.41
2022-09-28T17:09:26.355Z,99103.88
2022-09-28T17:12:28.953Z,99102.16
2022-09-28T17:15:30.928Z,99099.59
2022-09-28T17:18:32.808Z,99086.53
2022-09-28T17:21:34.448Z,99081.38
2022-09-28T17:24:37.035Z,99080.41
2022-09-28T17:27:45.680Z,99080.41
2022-09-28T17:30:47.869Z,99079.47
2022-09-28T17:33:50.396Z,99086.47
2022-09-28T17:36:54.328Z,99084.78
2022-09-28T17:39:56.309Z,99083.91
2022-09-28T17:42:58.953Z,99076.81
2022-09-28T17:46:00.935Z,99074.34
2022-09-28T17:49:05.099Z,99074.50
2022-09-28T17:52:06.776Z,99066.47
2022-09-28T17:55:08.937Z,99068.38
2022-09-28T17:58:19.378Z,99075.44
2022-09-28T18:01:21.076Z,99071.87
2022-09-28T18:04:50.186Z,99072.03
2022-09-28T18:07:47.553Z,99061.47
2022-09-28T18:10:50.506Z,99070.91
2022-09-28T18:13:52.242Z,99065.75
2022-09-28T18:16:57.415Z,99063.03
2022-09-28T18:19:59.331Z,99067.34
2022-09-28T18:23:01.038Z,99072.69
2022-09-28T18:26:03.413Z,99083.12
2022-09-28T18:29:08.427Z,99081.38
2022-09-28T18:32:10.285Z,99089.25
2022-09-28T18:35:12.135Z,99076.28
2022-09-28T18:38:13.943Z,99069.34
2022-09-28T18:41:16.174Z,99060.50
2022-09-28T18:44:18.267Z,99063.25
2022-09-28T18:47:20.119Z,99070.13
2022-09-28T18:50:22.119Z,99067.53
2022-09-28T18:53:24.013Z,99071.00
2022-09-28T18:56:27.051Z,99087.59
2022-09-28T18:59:28.933Z,99084.19
2022-09-28T19:02:30.763Z,99090.28
2022-09-28T19:05:33.819Z,99096.50
2022-09-28T19:08:36.081Z,99092.94
2022-09-28T19:11:37.949Z,99094.75
2022-09-28T19:14:39.615Z,99098.25
2022-09-28T19:17:42.521Z,99090.31
2022-09-28T19:20:44.832Z,99094.72
2022-09-28T19:23:49.822Z,99098.28
2022-09-28T19:26:55.003Z,99096.44
2022-09-28T19:29:57.616Z,99092.97
2022-09-28T19:33:00.233Z,99103.53
2022-09-28T19:36:05.247Z,99111.28
2022-09-28T19:39:07.848Z,99109.72
2022-09-28T19:42:09.664Z,99109.63
2022-09-28T19:45:14.620Z,99111.47
2022-09-28T19:48:16.485Z,99118.66
2022-09-28T19:51:19.135Z,99110.59
2022-09-28T19:54:35.557Z,99118.56
2022-09-28T19:57:47.893Z,99120.28
2022-09-28T20:00:49.956Z,99123.00
2022-09-28T20:03:51.548Z,99114.28
2022-09-28T20:06:54.647Z,99123.03
2022-09-28T20:09:56.619Z,99109.87
2022-09-28T20:12:59.052Z,99102.03
2022-09-28T20:16:08.865Z,99104.72
2022-09-28T20:19:10.681Z,99112.59
2022-09-28T20:22:12.252Z,99118.84
2022-09-28T20:25:14.152Z,99118.88
2022-09-28T20:28:16.425Z,99120.62
2022-09-28T20:31:21.887Z,99130.19
2022-09-28T20:34:23.633Z,99117.94
2022-09-28T20:37:26.697Z,99119.66
2022-09-28T20:40:28.440Z,99113.53
2022-09-28T20:43:31.645Z,99117.87
2022-09-28T20:46:37.018Z,99110.88
2022-09-28T20:49:38.734Z,99100.53
2022-09-28T20:52:42.755Z,99090.91
2022-09-28T20:55:44.417Z,99097.91
2022-09-28T20:58:46.714Z,99107.53
2022-09-28T21:01:49.069Z,99111.84
2022-09-28T21:04:51.358Z,99103.97
2022-09-28T21:07:53.024Z,99105.69
2022-09-28T21:10:54.881Z,99106.59
2022-09-28T21:13:59.053Z,99110.13
2022-09-28T21:17:00.751Z,99116.22
2022-09-28T21:20:02.844Z,99114.47
2022-09-28T21:23:06.419Z,99099.63
2022-09-28T21:26:10.688Z,99103.94
2022-09-28T21:29:14.921Z,99101.34
2022-09-28T21:32:17.202Z,99097.03
2022-09-28T21:35:18.830Z,99099.66
2022-09-28T21:38:20.886Z,99097.06
2022-09-28T21:41:23.280Z,99098.75
2022-09-28T21:44:25.216Z,99088.25
2022-09-28T21:47:26.846Z,99089.16
2022-09-28T21:50:28.693Z,99081.34
2022-09-28T21:53:34.121Z,99092.69
2022-09-28T21:56:35.851Z,99089.19
2022-09-28T21:59:37.974Z,99081.31
2022-09-28T22:02:41.247Z,99089.16
2022-09-28T22:05:43.600Z,99079.59
2022-09-28T22:08:46.424Z,99081.31
2022-09-28T22:11:49.670Z,99086.53
2022-09-28T22:14:51.332Z,99078.69
2022-09-28T22:17:55.317Z,99067.38
2022-09-28T22:21:07.208Z,99055.19
2022-09-28T22:24:10.128Z,99048.22
2022-09-28T22:27:11.784Z,99056.91
2022-09-28T22:30:13.695Z,99061.28
2022-09-28T22:33:15.528Z,99048.22
2022-09-28T22:36:17.253Z,99053.41
2022-09-28T22:39:19.126Z,99050.81
2022-09-28T22:42:22.075Z,99055.16
2022-09-28T22:45:23.816Z,99049.94
2022-09-28T22:48:25.489Z,99051.69
2022-09-28T22:51:29.941Z,99042.97
2022-09-28T22:54:34.224Z,99057.78
2022-09-28T22:57:37.217Z,99051.69
2022-09-28T23:00:46.622Z,99051.69
2022-09-28T23:03:49.411Z,99048.19
2022-09-28T23:06:51.129Z,99054.31
2022-09-28T23:09:52.849Z,99057.81
2022-09-28T23:12:54.992Z,99058.69
2022-09-28T23:19:20.952Z,99047.31
2022-09-28T23:22:22.562Z,99040.37
2022-09-28T23:25:25.667Z,99031.66
2022-09-28T23:28:27.907Z,99034.25
2022-09-28T23:31:31.198Z,99031.63
2022-09-28T23:34:33.159Z,99037.72
2022-09-28T23:37:38.786Z,99033.37
2022-09-28T23:40:45.132Z,99031.63
2022-09-28T23:43:46.902Z,99030.78
2022-09-28T23:46:48.887Z,99035.09
2022-09-28T23:49:50.480Z,99034.25
2022-09-28T23:52:52.095Z,99034.25
2022-09-28T23:55:54.642Z,99031.63
2022-09-28T23:58:56.417Z,99033.37
